Time;durP1;ratioP1;P1;durP2;ratioP2;P2;SDS_P1;SDS_P2;PMS_P1;PMS_P2;Temp;Humidity;BMP_temperature;BMP_pressure;BME280_temperature;BME280_humidity;BME280_pressure;Samples;Min_cycle;Max_cycle;Signal;HPM_P1;HPM_P2
2021/12/07 00:00:06;;;;;;;;;;;;;;;22.43;6.25;100744.03;5136026;27;19911;-69
2021/12/07 00:02:32;;;;;;;;;;;;;;;22.45;6.21;100737.22;5136028;27;19915;-69
2021/12/07 00:04:58;;;;;;;;;;;;;;;22.46;6.32;100748.97;5135803;27;19912;-69
2021/12/07 00:07:23;;;;;;;;;;;;;;;22.49;6.13;100738.38;5136280;27;19957;-69
2021/12/07 00:09:50;;;;;;;;;;;;;;;22.46;6.20;100738.88;5136490;27;20018;-69
2021/12/07 00:12:15;;;;;;;;;;;;;;;22.46;6.28;100740.81;5135979;27;19918;-69
2021/12/07 00:14:41;;;;;;;;;;;;;;;22.46;6.29;100743.53;5136192;27;19919;-69
2021/12/07 00:17:07;;;;;;;;;;;;;;;22.46;6.59;100740.81;5135565;27;19944;-69
2021/12/07 00:19:32;;;;;;;;;;;;;;;22.50;6.20;100739.19;5135940;27;19927;-69
2021/12/07 00:21:57;;;;;;;;;;;;;;;22.48;6.32;100741.34;5136016;27;20356;-69
2021/12/07 00:24:22;;;;;;;;;;;;;;;22.46;6.29;100738.06;5135751;27;19964;-69
2021/12/07 00:26:48;;;;;;;;;;;;;;;22.47;6.28;100728.81;5135754;27;19911;-70
2021/12/07 00:29:13;;;;;;;;;;;;;;;22.43;6.35;100727.69;5136009;27;19917;-69
2021/12/07 00:31:42;;;;;;;;;;;;;;;22.43;6.39;100731.22;5135943;27;19956;-69
2021/12/07 00:34:15;;;;;;;;;;;;;;;22.43;6.40;100733.13;5135799;27;19912;-69
2021/12/07 00:36:44;;;;;;;;;;;;;;;22.44;6.30;100729.34;5136186;27;19953;-70
2021/12/07 00:39:09;;;;;;;;;;;;;;;22.43;6.32;100733.13;5136280;27;19911;-70
2021/12/07 00:41:35;;;;;;;;;;;;;;;22.46;6.41;100724.47;5137959;27;20261;-69
2021/12/07 00:44:01;;;;;;;;;;;;;;;22.49;6.32;100722.03;5136230;27;19911;-69
2021/12/07 00:46:27;;;;;;;;;;;;;;;22.45;6.32;100725.53;5135063;27;20365;-69
2021/12/07 00:48:52;;;;;;;;;;;;;;;22.44;6.33;100729.34;5135320;27;19958;-70
2021/12/07 00:51:17;;;;;;;;;;;;;;;22.42;6.35;100735.06;5135224;27;19961;-70
2021/12/07 00:53:42;;;;;;;;;;;;;;;22.43;6.35;100716.81;5135348;27;19918;-70
2021/12/07 00:56:08;;;;;;;;;;;;;;;22.40;6.37;100726.28;5135210;27;19962;-69
2021/12/07 00:58:33;;;;;;;;;;;;;;;22.43;6.39;100722.25;5135128;27;19911;-69
2021/12/07 01:00:59;;;;;;;;;;;;;;;22.43;6.28;100723.06;5135194;27;20361;-70
2021/12/07 01:03:25;;;;;;;;;;;;;;;22.46;6.45;100728.00;5135168;27;19912;-69
2021/12/07 01:05:53;;;;;;;;;;;;;;;22.44;6.39;100718.47;5135299;28;19964;-69
2021/12/07 01:24:44;;;;;;;;;;;;;;;22.42;6.46;100716.00;5035585;28;20035;-69
2021/12/07 01:27:10;;;;;;;;;;;;;;;22.41;6.42;100719.78;5035551;28;20044;-69
2021/12/07 01:29:36;;;;;;;;;;;;;;;22.45;6.30;100720.09;5035607;28;19919;-69
2021/12/07 01:32:29;;;;;;;;;;;;;;;22.46;6.55;100710.84;5035472;28;19936;-69
2021/12/07 01:46:01;;;;;;;;;;;;;;;22.44;6.35;100713.81;5035343;28;19913;-69
2021/12/07 02:01:45;;;;;;;;;;;;;;;22.43;6.42;100695.00;5118046;28;19962;-69
2021/12/07 02:04:10;;;;;;;;;;;;;;;22.44;6.34;100702.13;5117496;28;19912;-69
2021/12/07 02:06:35;;;;;;;;;;;;;;;22.42;6.35;100705.09;5117753;28;19911;-69
2021/12/07 02:09:00;;;;;;;;;;;;;;;22.45;6.33;100701.03;5117548;28;20350;-69
2021/12/07 02:11:26;;;;;;;;;;;;;;;22.43;6.46;100704.00;5117585;28;19973;-69
2021/12/07 02:16:18;;;;;;;;;;;;;;;22.49;6.43;100696.69;5099724;28;19916;-69
2021/12/07 02:18:43;;;;;;;;;;;;;;;22.44;6.37;100696.66;5137241;27;19994;-69
2021/12/07 02:21:15;;;;;;;;;;;;;;;22.43;6.44;100689.56;5137563;27;19961;-69
2021/12/07 02:23:40;;;;;;;;;;;;;;;22.44;6.42;100694.75;5137762;27;19911;-69
2021/12/07 02:26:06;;;;;;;;;;;;;;;22.44;6.32;100685.78;5137943;27;19990;-69
2021/12/07 02:28:31;;;;;;;;;;;;;;;22.43;6.39;100689.56;5138004;27;20380;-69
2021/12/07 02:30:56;;;;;;;;;;;;;;;22.45;6.45;100685.50;5137974;27;20276;-69
2021/12/07 02:33:21;;;;;;;;;;;;;;;22.42;6.42;100677.03;5137406;27;19922;-69
2021/12/07 02:35:46;;;;;;;;;;;;;;;22.43;6.48;100681.41;5119387;27;19922;-69
2021/12/07 02:38:12;;;;;;;;;;;;;;;22.49;6.45;100678.47;5137711;27;20372;-69
2021/12/07 02:40:37;;;;;;;;;;;;;;;22.47;6.43;100675.19;5137683;27;19911;-69
2021/12/07 02:43:02;;;;;;;;;;;;;;;22.46;6.40;100678.16;5137688;27;19971;-69
2021/12/07 02:45:27;;;;;;;;;;;;;;;22.47;6.36;100674.34;5137655;27;19911;-69
2021/12/07 02:47:53;;;;;;;;;;;;;;;22.46;6.35;100680.88;5137460;27;20404;-69
2021/12/07 02:50:18;;;;;;;;;;;;;;;22.45;6.42;100673.78;5137402;27;20424;-69
2021/12/07 02:52:43;;;;;;;;;;;;;;;22.46;6.36;100670.81;5137335;27;19983;-69
2021/12/07 02:55:09;;;;;;;;;;;;;;;22.50;6.42;100676.56;5137370;27;19912;-69
2021/12/07 02:57:35;;;;;;;;;;;;;;;22.53;6.30;100673.31;5137304;27;19911;-69
2021/12/07 03:00:09;;;;;;;;;;;;;;;22.49;6.39;100672.19;5136860;27;20337;-69
2021/12/07 03:02:42;;;;;;;;;;;;;;;22.48;6.42;100673.28;5136813;27;20373;-69
2021/12/07 03:05:19;;;;;;;;;;;;;;;22.47;6.35;100669.75;5137019;27;19912;-69
2021/12/07 03:26:33;;;;;;;;;;;;;;;22.48;6.33;100648.75;5115946;28;19924;-69
2021/12/07 03:29:00;;;;;;;;;;;;;;;22.47;6.35;100658.00;5115766;28;19915;-69
2021/12/07 03:31:26;;;;;;;;;;;;;;;22.49;6.32;100655.84;5097745;28;20319;-70
2021/12/07 03:33:53;;;;;;;;;;;;;;;22.49;6.28;100661.28;5115142;28;19912;-69
2021/12/07 03:36:19;;;;;;;;;;;;;;;22.48;6.13;100659.66;5116047;28;19965;-69
2021/12/07 03:38:44;;;;;;;;;;;;;;;22.47;6.28;100658.00;5115952;28;19912;-70
2021/12/07 03:41:09;;;;;;;;;;;;;;;22.47;6.34;100652.56;5116052;28;19916;-70
2021/12/07 03:43:34;;;;;;;;;;;;;;;22.45;6.26;100660.97;5115828;28;19947;-69
2021/12/07 03:45:59;;;;;;;;;;;;;;;22.48;6.32;100659.66;5116374;28;19919;-69
2021/12/07 03:48:25;;;;;;;;;;;;;;;22.46;6.07;100642.75;5117028;28;19919;-69
2021/12/07 03:50:50;;;;;;;;;;;;;;;22.46;6.03;100657.19;5115554;28;19911;-69
2021/12/07 03:53:15;;;;;;;;;;;;;;;22.48;6.23;100651.47;5115839;28;19912;-69
2021/12/07 03:55:41;;;;;;;;;;;;;;;22.49;6.22;100650.38;5117391;28;19965;-70
2021/12/07 03:58:06;;;;;;;;;;;;;;;22.49;6.25;100655.84;5126684;28;20004;-69
2021/12/07 04:00:34;;;;;;;;;;;;;;;22.47;6.23;100647.09;5128162;28;20091;-70
2021/12/07 04:03:02;;;;;;;;;;;;;;;22.50;6.10;100646.59;5120848;28;20255;-70
2021/12/07 04:05:28;;;;;;;;;;;;;;;22.54;6.19;100650.44;5118675;28;20393;-69
2021/12/07 04:07:53;;;;;;;;;;;;;;;22.59;6.22;100655.91;5116114;28;19912;-69
2021/12/07 04:10:19;;;;;;;;;;;;;;;22.65;6.02;100649.44;5115393;28;20426;-69
2021/12/07 04:12:44;;;;;;;;;;;;;;;22.70;6.07;100640.47;5115295;28;19911;-69
2021/12/07 04:15:10;;;;;;;;;;;;;;;22.76;5.91;100638.59;5115182;28;20369;-69
2021/12/07 04:17:35;;;;;;;;;;;;;;;22.80;6.03;100634.25;5125632;27;19915;-70
2021/12/07 04:20:00;;;;;;;;;;;;;;;22.83;5.84;100633.72;5135568;27;19912;-69
2021/12/07 04:22:44;;;;;;;;;;;;;;;22.87;6.02;100634.88;5071253;28;19921;-69
2021/12/07 04:25:10;;;;;;;;;;;;;;;22.89;5.82;100629.97;5071305;28;19921;-69
2021/12/07 04:27:39;;;;;;;;;;;;;;;22.92;5.83;100625.88;5071140;28;19917;-70
2021/12/07 04:30:08;;;;;;;;;;;;;;;22.95;5.79;100620.72;5071533;28;19956;-70
2021/12/07 04:32:37;;;;;;;;;;;;;;;22.99;5.96;100621.00;5071367;28;20011;-69
2021/12/07 04:35:02;;;;;;;;;;;;;;;23.01;5.83;100619.66;5070933;28;20326;-69
2021/12/07 04:37:28;;;;;;;;;;;;;;;23.02;5.93;100620.47;5070938;28;19961;-69
2021/12/07 04:39:53;;;;;;;;;;;;;;;23.04;5.66;100624.59;5071164;28;20291;-69
2021/12/07 04:42:18;;;;;;;;;;;;;;;23.05;5.77;100620.81;5070720;28;19970;-68
2021/12/07 04:44:51;;;;;;;;;;;;;;;23.08;5.61;100627.66;5071051;28;20019;-68
2021/12/07 04:47:24;;;;;;;;;;;;;;;23.10;5.61;100627.38;5070936;28;19916;-68
2021/12/07 04:50:16;;;;;;;;;;;;;;;23.12;5.62;100625.22;5070973;28;19917;-68
2021/12/07 04:58:05;;;;;;;;;;;;;;;23.18;5.68;100624.13;5083944;28;19943;-69
2021/12/07 05:00:30;;;;;;;;;;;;;;;23.19;5.67;100631.22;5070804;28;20403;-68
2021/12/07 05:03:00;;;;;;;;;;;;;;;23.21;5.51;100637.22;5086325;28;19917;-68
2021/12/07 05:05:29;;;;;;;;;;;;;;;23.23;5.65;100635.06;5070416;28;19922;-68
2021/12/07 05:07:57;;;;;;;;;;;;;;;23.25;5.51;100635.63;5070543;28;19928;-68
2021/12/07 05:10:30;;;;;;;;;;;;;;;23.26;5.49;100631.78;5070324;28;19970;-68
2021/12/07 05:39:42;;;;;;;;;;;;;;;23.41;5.46;100617.41;4995600;28;20009;-68
2021/12/07 05:42:07;;;;;;;;;;;;;;;23.40;5.59;100622.06;4994985;28;20394;-68
2021/12/07 05:44:32;;;;;;;;;;;;;;;23.42;5.27;100624.50;4995094;28;19924;-70
2021/12/07 05:46:58;;;;;;;;;;;;;;;23.42;5.37;100625.34;4995621;28;19921;-69
2021/12/07 05:49:23;;;;;;;;;;;;;;;23.46;5.31;100630.22;4995241;28;19918;-69
2021/12/07 05:51:48;;;;;;;;;;;;;;;23.46;5.23;100635.69;4995333;28;20009;-69
2021/12/07 05:54:13;;;;;;;;;;;;;;;23.47;5.32;100629.16;4995663;28;19929;-68
2021/12/07 05:56:39;;;;;;;;;;;;;;;23.49;5.23;100629.69;5000301;28;19914;-68
2021/12/07 05:59:04;;;;;;;;;;;;;;;23.51;5.35;100627.50;4998954;28;20265;-69
2021/12/07 06:01:29;;;;;;;;;;;;;;;23.51;5.28;100635.69;5011073;28;20379;-68
2021/12/07 06:03:54;;;;;;;;;;;;;;;23.47;4.95;100632.69;5102887;28;19916;-69
2021/12/07 06:06:20;;;;;;;;;;;;;;;23.52;5.14;100638.16;5105840;28;19955;-68
2021/12/07 06:08:45;;;;;;;;;;;;;;;23.54;5.14;100632.44;5104621;28;19927;-68
2021/12/07 06:11:10;;;;;;;;;;;;;;;23.53;4.95;100637.09;5102943;28;20384;-68
2021/12/07 06:13:35;;;;;;;;;;;;;;;23.57;5.01;100638.19;5096662;28;20282;-69
2021/12/07 06:16:06;;;;;;;;;;;;;;;23.57;5.09;100638.19;5096655;28;19956;-68
2021/12/07 06:18:31;;;;;;;;;;;;;;;23.59;5.03;100637.91;5096395;28;19916;-68
2021/12/07 06:20:56;;;;;;;;;;;;;;;23.60;4.96;100642.28;5058533;28;19985;-68
2021/12/07 06:23:22;;;;;;;;;;;;;;;23.61;5.00;100643.91;5076266;28;19993;-70
2021/12/07 06:25:48;;;;;;;;;;;;;;;23.62;5.03;100640.09;5058313;28;19987;-70
2021/12/07 06:28:13;;;;;;;;;;;;;;;23.64;5.09;100646.09;5076265;28;19921;-69
2021/12/07 06:30:38;;;;;;;;;;;;;;;23.61;4.90;100646.63;5058089;28;19916;-69
2021/12/07 06:33:03;;;;;;;;;;;;;;;23.61;4.93;100638.44;5075810;28;20370;-70
2021/12/07 06:35:30;;;;;;;;;;;;;;;23.62;4.89;100638.19;5075864;28;20339;-69
2021/12/07 06:37:55;;;;;;;;;;;;;;;23.62;4.82;100632.72;5075718;28;19947;-69
2021/12/07 06:40:20;;;;;;;;;;;;;;;23.63;4.60;100637.13;5075657;28;19916;-68
2021/12/07 06:42:45;;;;;;;;;;;;;;;23.65;4.84;100636.84;5075329;28;19917;-68
2021/12/07 06:45:11;;;;;;;;;;;;;;;23.66;4.55;100645.84;5074351;28;19916;-69
2021/12/07 06:47:36;;;;;;;;;;;;;;;23.67;4.64;100642.84;5075491;28;19917;-68
2021/12/07 06:50:05;;;;;;;;;;;;;;;23.68;4.55;100644.50;5075288;28;19995;-70
2021/12/07 06:52:30;;;;;;;;;;;;;;;23.68;4.73;100639.03;5075898;28;19924;-69
2021/12/07 06:54:57;;;;;;;;;;;;;;;23.69;4.64;100646.13;5075751;28;19916;-69
2021/12/07 06:57:22;;;;;;;;;;;;;;;23.66;4.58;100646.66;5074865;28;19962;-69
2021/12/07 06:59:47;;;;;;;;;;;;;;;23.69;4.67;100645.31;5074843;28;20302;-69
2021/12/07 07:02:13;;;;;;;;;;;;;;;23.70;4.47;100636.03;5074619;28;19916;-69
2021/12/07 07:04:38;;;;;;;;;;;;;;;23.71;4.42;100638.47;5074283;28;20046;-69
2021/12/07 07:07:03;;;;;;;;;;;;;;;23.72;4.59;100645.59;5074245;28;19923;-68
2021/12/07 07:09:29;;;;;;;;;;;;;;;23.76;4.54;100649.41;5074203;28;19974;-69
2021/12/07 07:11:54;;;;;;;;;;;;;;;23.73;4.61;100636.34;5074464;28;20362;-68
2021/12/07 07:14:19;;;;;;;;;;;;;;;23.75;4.46;100636.88;5074239;28;20342;-69
2021/12/07 07:16:44;;;;;;;;;;;;;;;23.77;4.47;100642.06;5057150;28;19931;-69
2021/12/07 07:19:09;;;;;;;;;;;;;;;23.73;4.44;100630.03;5076718;28;19927;-69
2021/12/07 07:21:35;;;;;;;;;;;;;;;23.72;4.28;100626.50;5093823;28;19924;-69
2021/12/07 07:24:00;;;;;;;;;;;;;;;23.77;4.50;100634.69;5094833;28;19923;-69
2021/12/07 07:26:25;;;;;;;;;;;;;;;23.79;4.48;100635.22;5094638;28;20369;-69
2021/12/07 07:28:50;;;;;;;;;;;;;;;23.55;4.67;100636.81;5094385;28;19916;-68
2021/12/07 07:31:16;;;;;;;;;;;;;;;23.74;4.63;100637.94;5094697;28;19924;-70
2021/12/07 07:33:41;;;;;;;;;;;;;;;23.77;4.63;100640.16;5093929;28;19947;-68
2021/12/07 07:36:06;;;;;;;;;;;;;;;23.82;4.75;100639.38;5094427;28;19927;-70
2021/12/07 07:38:32;;;;;;;;;;;;;;;23.83;4.79;100632.81;5094645;28;20382;-71
2021/12/07 07:40:57;;;;;;;;;;;;;;;23.86;4.45;100645.13;5093857;28;19924;-70
2021/12/07 07:43:22;;;;;;;;;;;;;;;23.87;4.30;100647.56;5094536;28;19916;-69
2021/12/07 07:45:49;;;;;;;;;;;;;;;23.87;4.50;100646.72;5094352;28;20324;-69
2021/12/07 07:48:14;;;;;;;;;;;;;;;23.85;4.50;100652.47;5094251;28;19927;-70
2021/12/07 07:50:40;;;;;;;;;;;;;;;23.89;4.55;100655.50;5076194;28;19916;-70
2021/12/07 07:53:07;;;;;;;;;;;;;;;23.89;4.63;100645.38;5095077;28;19951;-71
2021/12/07 07:55:32;;;;;;;;;;;;;;;23.92;4.73;100639.41;5093858;28;19916;-70
2021/12/07 07:57:57;;;;;;;;;;;;;;;23.93;4.36;100645.66;5093956;28;20003;-69
2021/12/07 08:00:23;;;;;;;;;;;;;;;23.94;4.35;100647.28;5094079;28;20410;-70
2021/12/07 08:02:48;;;;;;;;;;;;;;;23.94;4.53;100642.66;5093786;28;20285;-69
2021/12/07 08:05:14;;;;;;;;;;;;;;;23.94;4.41;100641.81;5094447;28;20285;-70
2021/12/07 08:07:47;;;;;;;;;;;;;;;23.94;4.39;100644.56;5094465;28;19923;-70
2021/12/07 08:10:12;;;;;;;;;;;;;;;23.93;4.38;100635.56;5093702;28;20337;-70
2021/12/07 08:12:37;;;;;;;;;;;;;;;23.97;4.42;100642.13;5094021;28;19920;-69
2021/12/07 08:15:03;;;;;;;;;;;;;;;23.98;4.42;100649.22;5094214;28;19950;-70
2021/12/07 08:17:28;;;;;;;;;;;;;;;23.94;4.23;100655.47;5095007;28;19920;-69
2021/12/07 08:19:53;;;;;;;;;;;;;;;24.02;4.65;100652.22;5087557;28;19983;-71
2021/12/07 08:22:19;;;;;;;;;;;;;;;24.00;4.66;100657.94;5072902;28;19952;-68
2021/12/07 08:24:44;;;;;;;;;;;;;;;24.05;4.59;100659.06;5074078;28;19920;-69
2021/12/07 08:27:09;;;;;;;;;;;;;;;24.05;4.77;100656.34;5073718;28;20375;-69
2021/12/07 08:29:34;;;;;;;;;;;;;;;24.09;4.63;100655.50;5074488;28;19920;-69
2021/12/07 08:32:00;;;;;;;;;;;;;;;24.04;4.68;100647.31;5074340;28;20382;-69
2021/12/07 08:34:25;;;;;;;;;;;;;;;24.08;4.86;100651.16;5074210;28;20309;-69
2021/12/07 08:36:50;;;;;;;;;;;;;;;24.09;4.79;100650.03;5073911;28;20011;-69
2021/12/07 08:39:15;;;;;;;;;;;;;;;24.12;4.76;100649.50;5073620;28;19928;-69
2021/12/07 08:41:41;;;;;;;;;;;;;;;24.12;4.72;100654.97;5074624;28;20486;-69
2021/12/07 08:44:07;;;;;;;;;;;;;;;24.09;4.73;100652.75;5074334;28;19917;-71
2021/12/07 08:46:32;;;;;;;;;;;;;;;24.13;4.83;100659.34;5074101;28;19916;-72
2021/12/07 08:48:57;;;;;;;;;;;;;;;24.16;4.85;100667.00;5073397;28;19916;-71
2021/12/07 08:51:22;;;;;;;;;;;;;;;24.18;4.92;100667.53;5073648;28;19966;-72
2021/12/07 08:54:14;;;;;;;;;;;;;;;24.16;4.73;100663.44;5073506;28;19923;-70
2021/12/07 09:02:01;;;;;;;;;;;;;;;24.15;4.59;100648.97;5073916;28;19924;-70
2021/12/07 09:04:28;;;;;;;;;;;;;;;24.24;4.71;100657.44;5074243;28;19916;-70
2021/12/07 09:06:53;;;;;;;;;;;;;;;24.24;4.69;100657.44;5074235;28;20374;-70
2021/12/07 09:09:19;;;;;;;;;;;;;;;24.26;4.95;100655.25;5060177;28;19917;-70
2021/12/07 09:11:44;;;;;;;;;;;;;;;24.22;4.67;100650.63;5060170;28;19943;-70
2021/12/07 09:14:12;;;;;;;;;;;;;;;24.23;4.70;100652.25;5059621;28;19923;-70
2021/12/07 09:16:37;;;;;;;;;;;;;;;24.21;4.59;100652.50;5077757;28;19934;-69
2021/12/07 09:19:03;;;;;;;;;;;;;;;24.24;4.60;100643.78;5076775;28;20415;-69
2021/12/07 09:21:29;;;;;;;;;;;;;;;24.28;4.73;100641.31;5094179;28;20269;-70
2021/12/07 09:23:54;;;;;;;;;;;;;;;24.30;4.63;100641.84;5098294;28;20330;-69
2021/12/07 09:26:19;;;;;;;;;;;;;;;24.35;4.71;100639.13;5099517;28;19923;-69
2021/12/07 09:28:45;;;;;;;;;;;;;;;24.32;4.63;100640.50;5097866;28;19927;-70
2021/12/07 09:31:10;;;;;;;;;;;;;;;24.34;4.76;100629.31;5097552;28;20334;-69
2021/12/07 09:33:36;;;;;;;;;;;;;;;24.34;4.79;100626.56;5097438;28;19916;-69
2021/12/07 09:36:01;;;;;;;;;;;;;;;24.27;4.62;100626.03;5097875;28;20404;-70
2021/12/07 09:38:27;;;;;;;;;;;;;;;24.36;4.72;100627.13;5097290;28;20380;-69
2021/12/07 09:40:53;;;;;;;;;;;;;;;24.37;4.62;100624.13;5096639;28;19961;-69
2021/12/07 09:43:18;;;;;;;;;;;;;;;24.25;4.99;100630.94;5096799;28;19916;-69
2021/12/07 09:45:43;;;;;;;;;;;;;;;24.30;4.64;100626.31;5096752;28;19969;-69
2021/12/07 09:48:09;;;;;;;;;;;;;;;24.37;4.95;100623.31;5097406;28;19916;-70
2021/12/07 09:50:35;;;;;;;;;;;;;;;24.36;4.73;100622.47;5096936;28;20289;-69
2021/12/07 09:53:01;;;;;;;;;;;;;;;24.38;4.97;100620.28;5096863;28;19964;-69
2021/12/07 09:55:28;;;;;;;;;;;;;;;24.38;4.98;100616.72;5096977;28;19917;-69
2021/12/07 09:57:53;;;;;;;;;;;;;;;24.44;4.75;100629.31;5097314;28;19916;-69
2021/12/07 10:00:20;;;;;;;;;;;;;;;24.44;4.85;100629.31;5096824;28;19923;-69
2021/12/07 10:02:46;;;;;;;;;;;;;;;24.49;4.77;100632.03;5078475;28;19928;-70
2021/12/07 10:05:11;;;;;;;;;;;;;;;24.47;5.11;100634.19;5096616;28;19916;-70
2021/12/07 10:07:37;;;;;;;;;;;;;;;24.47;5.24;100634.19;5096477;28;20381;-70
2021/12/07 10:10:03;;;;;;;;;;;;;;;24.51;5.04;100632.56;5096153;28;20415;-70
2021/12/07 10:12:29;;;;;;;;;;;;;;;24.50;5.10;100628.19;5096741;28;19948;-69
2021/12/07 10:14:54;;;;;;;;;;;;;;;24.55;5.20;100639.16;5078419;28;19920;-69
2021/12/07 10:17:20;;;;;;;;;;;;;;;24.54;5.28;100640.25;5096960;28;20296;-70
2021/12/07 10:19:45;;;;;;;;;;;;;;;24.58;4.97;100643.25;5096440;28;20377;-70
2021/12/07 10:22:12;;;;;;;;;;;;;;;24.57;5.04;100646.25;5076743;28;19925;-71
2021/12/07 10:24:42;;;;;;;;;;;;;;;24.44;5.02;100644.84;5078358;28;19999;-70
2021/12/07 10:27:10;;;;;;;;;;;;;;;24.55;5.36;100635.59;5075987;28;19916;-70
2021/12/07 10:29:35;;;;;;;;;;;;;;;24.61;5.19;100634.50;5075616;28;19974;-70
2021/12/07 10:32:02;;;;;;;;;;;;;;;24.54;5.12;100629.31;5075792;28;19923;-70
2021/12/07 10:34:33;;;;;;;;;;;;;;;24.47;5.13;100634.19;5076020;28;19920;-70
2021/12/07 10:37:08;;;;;;;;;;;;;;;24.41;5.22;100635.31;5058108;28;19948;-71
2021/12/07 10:39:34;;;;;;;;;;;;;;;24.47;5.22;100620.53;5076788;28;20367;-69
2021/12/07 10:42:03;;;;;;;;;;;;;;;24.42;5.27;100625.19;5059158;28;19917;-69
2021/12/07 10:44:30;;;;;;;;;;;;;;;24.58;5.39;100639.69;5075620;28;19916;-70
2021/12/07 10:46:57;;;;;;;;;;;;;;;24.55;5.48;100633.69;5075845;28;19920;-69
2021/12/07 10:49:29;;;;;;;;;;;;;;;24.55;5.12;100630.13;5076215;28;19916;-70
2021/12/07 10:51:56;;;;;;;;;;;;;;;24.58;5.58;100624.13;5075679;28;19921;-69
2021/12/07 10:54:21;;;;;;;;;;;;;;;24.63;5.41;100623.28;5075920;28;20390;-70
2021/12/07 10:56:47;;;;;;;;;;;;;;;24.65;5.48;100624.66;5076116;28;19916;-70
2021/12/07 10:59:13;;;;;;;;;;;;;;;24.66;5.52;100611.81;5075827;28;20260;-69
2021/12/07 11:01:42;;;;;;;;;;;;;;;24.67;5.38;100621.66;5075555;28;19917;-69
2021/12/07 11:04:37;;;;;;;;;;;;;;;24.69;5.48;100622.19;5076016;28;19992;-68
2021/12/07 11:07:11;;;;;;;;;;;;;;;24.70;5.44;100615.63;5013770;28;19917;-69
2021/12/07 11:09:54;;;;;;;;;;;;;;;24.73;5.50;100620.53;5013404;28;19940;-69
2021/12/07 11:12:20;;;;;;;;;;;;;;;24.51;5.47;100618.09;5014162;28;19929;-69
2021/12/07 11:14:57;;;;;;;;;;;;;;;24.55;5.43;100620.03;5013747;28;20360;-69
2021/12/07 11:17:32;;;;;;;;;;;;;;;24.65;5.29;100629.31;5013895;28;19917;-69
2021/12/07 11:19:57;;;;;;;;;;;;;;;24.66;5.25;100629.00;5014846;28;19917;-69
2021/12/07 11:22:27;;;;;;;;;;;;;;;24.62;5.04;100638.88;5033447;28;20448;-69
2021/12/07 11:24:53;;;;;;;;;;;;;;;24.69;5.35;100641.31;5034533;28;19928;-68
2021/12/07 11:30:13;;;;;;;;;;;;;;;24.77;5.28;100638.03;5033091;28;20006;-69
2021/12/07 11:32:48;;;;;;;;;;;;;;;24.78;5.17;100628.72;5033429;28;20003;-69
2021/12/07 11:35:15;;;;;;;;;;;;;;;24.75;5.01;100632.03;5034635;28;19925;-68
2021/12/07 11:37:41;;;;;;;;;;;;;;;24.65;4.96;100632.03;5034677;28;19923;-69
2021/12/07 11:40:06;;;;;;;;;;;;;;;24.69;4.88;100633.13;5015990;28;19917;-69
2021/12/07 11:42:36;;;;;;;;;;;;;;;24.72;4.82;100622.44;5037965;28;19947;-69
2021/12/07 11:45:07;;;;;;;;;;;;;;;24.72;5.02;100621.63;5074783;28;19917;-71
2021/12/07 11:47:33;;;;;;;;;;;;;;;24.74;5.14;100622.19;5073874;28;19971;-71
2021/12/07 11:50:22;;;;;;;;;;;;;;;24.73;4.95;100612.31;5074474;28;20354;-71
2021/12/07 11:52:48;;;;;;;;;;;;;;;24.80;5.02;100607.41;5063902;28;19916;-69
2021/12/07 11:55:13;;;;;;;;;;;;;;;24.78;5.06;100609.59;5073663;28;19916;-69
2021/12/07 11:57:38;;;;;;;;;;;;;;;24.78;5.01;100603.31;5073361;28;20325;-69
2021/12/07 12:00:05;;;;;;;;;;;;;;;24.68;5.14;100593.22;5074478;28;20309;-69
2021/12/07 12:02:30;;;;;;;;;;;;;;;24.62;5.12;100594.34;5071766;28;20264;-69
2021/12/07 12:04:55;;;;;;;;;;;;;;;24.71;5.07;100595.41;5073365;28;19946;-70
2021/12/07 12:07:21;;;;;;;;;;;;;;;24.73;5.22;100598.66;5073821;28;19916;-69
2021/12/07 12:09:49;;;;;;;;;;;;;;;24.73;5.02;100598.66;5055866;28;19924;-69
2021/12/07 12:12:33;;;;;;;;;;;;;;;24.76;4.90;100609.03;5074293;28;20351;-69
2021/12/07 12:15:01;;;;;;;;;;;;;;;24.74;4.94;100606.59;5073561;28;19916;-69
2021/12/07 12:17:33;;;;;;;;;;;;;;;24.71;5.11;100604.41;5073079;28;19916;-69
2021/12/07 12:19:58;;;;;;;;;;;;;;;24.81;4.81;100598.09;5073194;28;20011;-69
2021/12/07 12:22:26;;;;;;;;;;;;;;;24.65;4.89;100597.34;5091816;28;20036;-69
2021/12/07 12:24:52;;;;;;;;;;;;;;;24.34;5.10;100604.72;5093521;28;19916;-69
2021/12/07 12:27:19;;;;;;;;;;;;;;;24.10;5.28;100602.53;5093147;28;20288;-69
2021/12/07 12:29:45;;;;;;;;;;;;;;;24.05;5.29;100599.81;5094129;28;19917;-69
2021/12/07 12:32:10;;;;;;;;;;;;;;;24.06;5.13;100608.81;5094891;28;19977;-69
2021/12/07 12:34:36;;;;;;;;;;;;;;;24.03;5.11;100614.84;5079305;28;19916;-69
2021/12/07 12:37:08;;;;;;;;;;;;;;;24.03;5.29;100607.47;5075721;28;20286;-69
2021/12/07 12:39:40;;;;;;;;;;;;;;;24.07;5.26;100618.66;5093400;28;20002;-69
2021/12/07 12:42:06;;;;;;;;;;;;;;;24.09;5.18;100617.28;5093737;28;19922;-71
2021/12/07 12:44:33;;;;;;;;;;;;;;;24.10;5.03;100623.56;5097954;28;20277;-69
2021/12/07 12:46:58;;;;;;;;;;;;;;;24.05;5.20;100621.66;5097577;28;20008;-68
2021/12/07 12:49:24;;;;;;;;;;;;;;;24.12;5.42;100622.19;5097743;28;19922;-68
2021/12/07 12:51:50;;;;;;;;;;;;;;;24.18;5.15;100626.59;5079571;28;19967;-69
2021/12/07 12:54:16;;;;;;;;;;;;;;;24.21;4.93;100621.66;5097461;28;20321;-69
2021/12/07 12:56:41;;;;;;;;;;;;;;;24.23;4.79;100622.19;5097114;28;19965;-70
2021/12/07 12:59:08;;;;;;;;;;;;;;;24.27;4.73;100623.31;5097570;28;19948;-69
2021/12/07 13:01:34;;;;;;;;;;;;;;;24.27;5.02;100615.94;5096989;28;20373;-69
2021/12/07 13:04:02;;;;;;;;;;;;;;;24.25;5.09;100615.38;5098017;28;19916;-69
2021/12/07 13:06:34;;;;;;;;;;;;;;;24.36;4.85;100618.94;5096944;28;19919;-69
2021/12/07 13:09:09;;;;;;;;;;;;;;;24.38;4.70;100614.00;5097546;28;19916;-70
2021/12/07 13:11:42;;;;;;;;;;;;;;;24.40;4.53;100617.28;5097289;28;19921;-70
2021/12/07 13:14:11;;;;;;;;;;;;;;;24.44;4.72;100618.38;5097060;28;19962;-70
2021/12/07 13:16:36;;;;;;;;;;;;;;;24.51;4.82;100618.09;5097320;28;19942;-69
2021/12/07 13:19:04;;;;;;;;;;;;;;;24.50;4.58;100617.25;5097023;28;20371;-69
2021/12/07 13:21:30;;;;;;;;;;;;;;;24.50;4.55;100628.19;5086956;28;20263;-68
2021/12/07 13:23:59;;;;;;;;;;;;;;;24.54;4.69;100629.31;5076720;28;19969;-70
2021/12/07 13:26:24;;;;;;;;;;;;;;;24.57;4.71;100638.06;5058565;28;19916;-70
2021/12/07 13:29:00;;;;;;;;;;;;;;;24.60;4.38;100627.41;5077185;28;19921;-68
2021/12/07 13:31:31;;;;;;;;;;;;;;;24.64;4.46;100633.13;5076654;28;20278;-69
2021/12/07 13:33:58;;;;;;;;;;;;;;;24.66;4.69;100641.88;5058885;28;19923;-69
2021/12/07 13:36:33;;;;;;;;;;;;;;;24.63;4.63;100642.41;5058109;28;19916;-69
2021/12/07 13:39:21;;;;;;;;;;;;;;;24.68;4.61;100645.13;5076677;28;19920;-69
2021/12/07 13:41:49;;;;;;;;;;;;;;;24.66;4.67;100642.66;5013817;28;19953;-69
2021/12/07 13:44:15;;;;;;;;;;;;;;;24.70;4.51;100641.03;5014253;28;19922;-69
2021/12/07 13:46:40;;;;;;;;;;;;;;;24.76;4.32;100639.13;5013951;28;20022;-69
2021/12/07 13:49:07;;;;;;;;;;;;;;;24.74;4.41;100641.31;5014269;28;20010;-69
2021/12/07 13:51:32;;;;;;;;;;;;;;;24.84;4.64;100635.00;5013710;28;19941;-69
2021/12/07 13:54:00;;;;;;;;;;;;;;;24.84;4.55;100630.34;4997457;28;19972;-69
2021/12/07 13:56:25;;;;;;;;;;;;;;;24.85;4.46;100633.91;5014073;28;19964;-70
2021/12/07 13:58:55;;;;;;;;;;;;;;;24.83;4.35;100628.69;5014040;28;19922;-69
2021/12/07 14:01:20;;;;;;;;;;;;;;;24.88;4.34;100639.63;5013979;28;19941;-69
2021/12/07 14:03:45;;;;;;;;;;;;;;;24.83;4.19;100641.56;5013788;28;19925;-70
2021/12/07 14:06:11;;;;;;;;;;;;;;;24.64;4.39;100642.13;5013972;28;19922;-70
2021/12/07 14:08:36;;;;;;;;;;;;;;;24.63;4.43;100637.78;4997387;28;20004;-69
2021/12/07 14:11:01;;;;;;;;;;;;;;;24.74;4.28;100639.38;5014649;28;20306;-69
2021/12/07 14:13:26;;;;;;;;;;;;;;;24.78;4.24;100633.38;5013719;28;19924;-69
2021/12/07 14:15:52;;;;;;;;;;;;;;;24.79;4.24;100635.84;5013914;28;20025;-69
2021/12/07 14:18:18;;;;;;;;;;;;;;;24.83;4.04;100638.81;5031470;28;19924;-69
2021/12/07 14:20:48;;;;;;;;;;;;;;;24.83;4.11;100636.91;5058835;28;20400;-69
2021/12/07 14:23:21;;;;;;;;;;;;;;;24.82;3.92;100638.03;5078045;28;19916;-69
2021/12/07 14:25:59;;;;;;;;;;;;;;;24.83;4.04;100633.34;5096196;28;19916;-69
2021/12/07 14:28:38;;;;;;;;;;;;;;;24.74;3.84;100631.19;5095972;28;19916;-69